sensor_id;sensor_type;location;lat;lon;timestamp;P1;durP1;ratioP1;P2;durP2;ratioP2
13959;SDS011;7052;51.050;3.716;2023-04-04T00:00:30;3.63;;;2.40;;
13959;SDS011;7052;51.050;3.716;2023-04-04T00:02:57;3.43;;;2.47;;
13959;SDS011;7052;51.050;3.716;2023-04-04T00:05:24;5.60;;;2.70;;
13959;SDS011;7052;51.050;3.716;2023-04-04T00:07:52;3.40;;;2.30;;
13959;SDS011;7052;51.050;3.716;2023-04-04T00:10:19;4.93;;;2.80;;
13959;SDS011;7052;51.050;3.716;2023-04-04T00:12:48;3.73;;;2.40;;
13959;SDS011;7052;51.050;3.716;2023-04-04T00:15:16;4.10;;;2.23;;
13959;SDS011;7052;51.050;3.716;2023-04-04T00:17:43;3.67;;;2.43;;
13959;SDS011;7052;51.050;3.716;2023-04-04T00:20:13;3.63;;;2.27;;
13959;SDS011;7052;51.050;3.716;2023-04-04T00:22:40;4.23;;;2.70;;
13959;SDS011;7052;51.050;3.716;2023-04-04T00:25:07;4.27;;;2.60;;
13959;SDS011;7052;51.050;3.716;2023-04-04T00:27:34;3.77;;;2.57;;
13959;SDS011;7052;51.050;3.716;2023-04-04T00:30:06;4.90;;;2.50;;
13959;SDS011;7052;51.050;3.716;2023-04-04T00:32:36;3.80;;;2.23;;
13959;SDS011;7052;51.050;3.716;2023-04-04T00:35:03;3.33;;;2.20;;
13959;SDS011;7052;51.050;3.716;2023-04-04T00:37:31;3.00;;;2.20;;
13959;SDS011;7052;51.050;3.716;2023-04-04T00:40:03;3.27;;;2.10;;
13959;SDS011;7052;51.050;3.716;2023-04-04T00:42:31;4.00;;;2.50;;
13959;SDS011;7052;51.050;3.716;2023-04-04T00:44:59;5.00;;;2.43;;
13959;SDS011;7052;51.050;3.716;2023-04-04T00:47:30;3.00;;;2.23;;
13959;SDS011;7052;51.050;3.716;2023-04-04T00:49:57;4.07;;;2.30;;
13959;SDS011;7052;51.050;3.716;2023-04-04T00:52:24;5.70;;;2.70;;
13959;SDS011;7052;51.050;3.716;2023-04-04T00:54:53;5.43;;;2.40;;
13959;SDS011;7052;51.050;3.716;2023-04-04T00:57:20;3.60;;;2.37;;
13959;SDS011;7052;51.050;3.716;2023-04-04T00:59:50;3.63;;;2.40;;
13959;SDS011;7052;51.050;3.716;2023-04-04T01:02:17;4.13;;;2.33;;
13959;SDS011;7052;51.050;3.716;2023-04-04T01:04:46;4.17;;;2.47;;
13959;SDS011;7052;51.050;3.716;2023-04-04T01:07:13;3.40;;;2.33;;
13959;SDS011;7052;51.050;3.716;2023-04-04T01:09:40;7.27;;;2.40;;
13959;SDS011;7052;51.050;3.716;2023-04-04T01:12:07;4.37;;;2.30;;
13959;SDS011;7052;51.050;3.716;2023-04-04T01:14:35;4.87;;;2.50;;
13959;SDS011;7052;51.050;3.716;2023-04-04T01:17:02;5.10;;;2.90;;
13959;SDS011;7052;51.050;3.716;2023-04-04T01:19:31;4.60;;;2.37;;
13959;SDS011;7052;51.050;3.716;2023-04-04T01:22:03;4.50;;;2.30;;
13959;SDS011;7052;51.050;3.716;2023-04-04T01:24:33;5.77;;;2.40;;
13959;SDS011;7052;51.050;3.716;2023-04-04T01:27:02;3.13;;;2.60;;
13959;SDS011;7052;51.050;3.716;2023-04-04T01:29:30;4.27;;;2.63;;
13959;SDS011;7052;51.050;3.716;2023-04-04T01:32:00;3.93;;;2.20;;
13959;SDS011;7052;51.050;3.716;2023-04-04T01:34:35;2.50;;;2.00;;
13959;SDS011;7052;51.050;3.716;2023-04-04T01:37:09;3.90;;;2.63;;
13959;SDS011;7052;51.050;3.716;2023-04-04T01:39:42;3.53;;;2.23;;
13959;SDS011;7052;51.050;3.716;2023-04-04T01:42:15;4.10;;;2.53;;
13959;SDS011;7052;51.050;3.716;2023-04-04T01:44:44;3.93;;;2.70;;
13959;SDS011;7052;51.050;3.716;2023-04-04T01:47:11;4.80;;;2.80;;
13959;SDS011;7052;51.050;3.716;2023-04-04T01:49:41;4.50;;;2.70;;
13959;SDS011;7052;51.050;3.716;2023-04-04T01:52:08;6.93;;;2.77;;
13959;SDS011;7052;51.050;3.716;2023-04-04T01:54:36;3.87;;;2.50;;
13959;SDS011;7052;51.050;3.716;2023-04-04T01:57:05;3.30;;;2.17;;
13959;SDS011;7052;51.050;3.716;2023-04-04T01:59:34;3.43;;;2.30;;
13959;SDS011;7052;51.050;3.716;2023-04-04T02:02:03;4.23;;;2.50;;
13959;SDS011;7052;51.050;3.716;2023-04-04T02:04:31;4.37;;;2.27;;
13959;SDS011;7052;51.050;3.716;2023-04-04T02:06:58;3.27;;;2.10;;
13959;SDS011;7052;51.050;3.716;2023-04-04T02:09:25;4.53;;;2.63;;
13959;SDS011;7052;51.050;3.716;2023-04-04T02:11:52;4.40;;;2.60;;
13959;SDS011;7052;51.050;3.716;2023-04-04T02:14:23;3.57;;;2.37;;
13959;SDS011;7052;51.050;3.716;2023-04-04T02:16:54;3.67;;;2.30;;
13959;SDS011;7052;51.050;3.716;2023-04-04T02:19:22;3.47;;;2.60;;
13959;SDS011;7052;51.050;3.716;2023-04-04T02:21:49;2.97;;;2.43;;
13959;SDS011;7052;51.050;3.716;2023-04-04T02:24:18;3.30;;;2.60;;
13959;SDS011;7052;51.050;3.716;2023-04-04T02:26:47;4.20;;;2.43;;
13959;SDS011;7052;51.050;3.716;2023-04-04T02:29:14;4.43;;;2.57;;
13959;SDS011;7052;51.050;3.716;2023-04-04T02:31:41;4.53;;;2.70;;
13959;SDS011;7052;51.050;3.716;2023-04-04T02:34:10;3.87;;;2.57;;
13959;SDS011;7052;51.050;3.716;2023-04-04T02:36:38;6.03;;;2.97;;
13959;SDS011;7052;51.050;3.716;2023-04-04T02:39:05;5.20;;;2.80;;
13959;SDS011;7052;51.050;3.716;2023-04-04T02:41:32;3.63;;;2.40;;
13959;SDS011;7052;51.050;3.716;2023-04-04T02:44:01;4.17;;;2.53;;
13959;SDS011;7052;51.050;3.716;2023-04-04T02:46:28;4.70;;;2.37;;
13959;SDS011;7052;51.050;3.716;2023-04-04T02:48:55;3.53;;;2.40;;
13959;SDS011;7052;51.050;3.716;2023-04-04T02:51:27;3.97;;;2.60;;
13959;SDS011;7052;51.050;3.716;2023-04-04T02:53:53;4.93;;;2.70;;
13959;SDS011;7052;51.050;3.716;2023-04-04T02:56:20;3.43;;;2.50;;
13959;SDS011;7052;51.050;3.716;2023-04-04T02:58:47;3.53;;;2.60;;
13959;SDS011;7052;51.050;3.716;2023-04-04T03:01:14;3.87;;;2.40;;
13959;SDS011;7052;51.050;3.716;2023-04-04T03:03:45;4.13;;;2.63;;
13959;SDS011;7052;51.050;3.716;2023-04-04T03:06:15;4.80;;;2.40;;
13959;SDS011;7052;51.050;3.716;2023-04-04T03:08:45;4.77;;;2.83;;
13959;SDS011;7052;51.050;3.716;2023-04-04T03:11:15;3.00;;;2.30;;
13959;SDS011;7052;51.050;3.716;2023-04-04T03:13:46;3.77;;;2.60;;
13959;SDS011;7052;51.050;3.716;2023-04-04T03:16:15;3.90;;;2.70;;
13959;SDS011;7052;51.050;3.716;2023-04-04T03:18:43;3.60;;;2.50;;
13959;SDS011;7052;51.050;3.716;2023-04-04T03:21:12;6.07;;;2.70;;
13959;SDS011;7052;51.050;3.716;2023-04-04T03:23:39;5.50;;;2.90;;
13959;SDS011;7052;51.050;3.716;2023-04-04T03:26:08;4.40;;;2.43;;
13959;SDS011;7052;51.050;3.716;2023-04-04T03:28:41;4.67;;;2.60;;
13959;SDS011;7052;51.050;3.716;2023-04-04T03:31:08;3.57;;;2.63;;
13959;SDS011;7052;51.050;3.716;2023-04-04T03:33:36;6.17;;;2.60;;
13959;SDS011;7052;51.050;3.716;2023-04-04T03:36:08;4.13;;;2.77;;
13959;SDS011;7052;51.050;3.716;2023-04-04T03:38:35;7.40;;;2.57;;
13959;SDS011;7052;51.050;3.716;2023-04-04T03:41:03;6.53;;;2.70;;
13959;SDS011;7052;51.050;3.716;2023-04-04T03:43:32;4.70;;;2.73;;
13959;SDS011;7052;51.050;3.716;2023-04-04T03:46:06;3.77;;;2.53;;
13959;SDS011;7052;51.050;3.716;2023-04-04T03:49:05;4.57;;;2.73;;
13959;SDS011;7052;51.050;3.716;2023-04-04T03:51:33;5.37;;;2.73;;
13959;SDS011;7052;51.050;3.716;2023-04-04T03:54:00;4.53;;;2.60;;
13959;SDS011;7052;51.050;3.716;2023-04-04T03:56:30;6.47;;;2.77;;
13959;SDS011;7052;51.050;3.716;2023-04-04T03:58:59;3.60;;;2.53;;
13959;SDS011;7052;51.050;3.716;2023-04-04T04:01:25;3.80;;;2.57;;
13959;SDS011;7052;51.050;3.716;2023-04-04T04:03:52;4.00;;;2.77;;
13959;SDS011;7052;51.050;3.716;2023-04-04T04:06:19;3.80;;;2.70;;
13959;SDS011;7052;51.050;3.716;2023-04-04T04:08:47;5.57;;;2.77;;
13959;SDS011;7052;51.050;3.716;2023-04-04T04:11:16;4.80;;;2.83;;
13959;SDS011;7052;51.050;3.716;2023-04-04T04:13:43;4.10;;;2.60;;
13959;SDS011;7052;51.050;3.716;2023-04-04T04:16:11;3.90;;;2.80;;
13959;SDS011;7052;51.050;3.716;2023-04-04T04:18:40;4.57;;;2.77;;
13959;SDS011;7052;51.050;3.716;2023-04-04T04:21:08;3.60;;;2.60;;
13959;SDS011;7052;51.050;3.716;2023-04-04T04:23:35;4.67;;;2.90;;
13959;SDS011;7052;51.050;3.716;2023-04-04T04:26:02;6.77;;;2.87;;
13959;SDS011;7052;51.050;3.716;2023-04-04T04:28:31;4.97;;;2.83;;
13959;SDS011;7052;51.050;3.716;2023-04-04T04:31:02;5.43;;;2.77;;
13959;SDS011;7052;51.050;3.716;2023-04-04T04:33:32;5.47;;;2.60;;
13959;SDS011;7052;51.050;3.716;2023-04-04T04:35:59;4.83;;;2.97;;
13959;SDS011;7052;51.050;3.716;2023-04-04T04:38:27;6.63;;;3.03;;
13959;SDS011;7052;51.050;3.716;2023-04-04T04:40:54;5.95;;;3.35;;
13959;SDS011;7052;51.050;3.716;2023-04-04T04:43:21;5.00;;;3.20;;
13959;SDS011;7052;51.050;3.716;2023-04-04T04:45:48;9.20;;;3.50;;
13959;SDS011;7052;51.050;3.716;2023-04-04T04:48:15;5.57;;;3.90;;
13959;SDS011;7052;51.050;3.716;2023-04-04T04:50:47;5.03;;;3.03;;
13959;SDS011;7052;51.050;3.716;2023-04-04T04:53:14;6.33;;;2.90;;
13959;SDS011;7052;51.050;3.716;2023-04-04T04:55:41;5.32;;;2.97;;
13959;SDS011;7052;51.050;3.716;2023-04-04T04:58:09;3.67;;;2.77;;
13959;SDS011;7052;51.050;3.716;2023-04-04T05:00:37;5.57;;;3.10;;
13959;SDS011;7052;51.050;3.716;2023-04-04T05:03:04;5.23;;;3.20;;
13959;SDS011;7052;51.050;3.716;2023-04-04T05:05:33;5.93;;;3.20;;
13959;SDS011;7052;51.050;3.716;2023-04-04T05:08:02;4.17;;;2.70;;
13959;SDS011;7052;51.050;3.716;2023-04-04T05:10:31;6.97;;;3.10;;
13959;SDS011;7052;51.050;3.716;2023-04-04T05:12:58;4.87;;;2.80;;
13959;SDS011;7052;51.050;3.716;2023-04-04T05:15:26;5.43;;;2.60;;
13959;SDS011;7052;51.050;3.716;2023-04-04T05:17:53;5.83;;;2.93;;
13959;SDS011;7052;51.050;3.716;2023-04-04T05:20:22;5.60;;;3.10;;
13959;SDS011;7052;51.050;3.716;2023-04-04T05:22:49;10.87;;;3.80;;
13959;SDS011;7052;51.050;3.716;2023-04-04T05:25:20;9.10;;;3.37;;
13959;SDS011;7052;51.050;3.716;2023-04-04T05:27:52;4.80;;;3.20;;
13959;SDS011;7052;51.050;3.716;2023-04-04T05:30:23;4.00;;;3.07;;
13959;SDS011;7052;51.050;3.716;2023-04-04T05:32:50;6.60;;;3.03;;
13959;SDS011;7052;51.050;3.716;2023-04-04T05:35:18;6.97;;;3.47;;
13959;SDS011;7052;51.050;3.716;2023-04-04T05:37:46;9.20;;;3.90;;
13959;SDS011;7052;51.050;3.716;2023-04-04T05:40:13;12.43;;;3.83;;
13959;SDS011;7052;51.050;3.716;2023-04-04T05:42:43;18.27;;;4.33;;
13959;SDS011;7052;51.050;3.716;2023-04-04T05:45:19;11.40;;;3.93;;
13959;SDS011;7052;51.050;3.716;2023-04-04T05:47:49;10.63;;;3.67;;
13959;SDS011;7052;51.050;3.716;2023-04-04T05:50:20;19.97;;;4.63;;
13959;SDS011;7052;51.050;3.716;2023-04-04T05:52:48;10.03;;;4.10;;
13959;SDS011;7052;51.050;3.716;2023-04-04T05:55:21;5.93;;;3.70;;
13959;SDS011;7052;51.050;3.716;2023-04-04T05:57:50;6.17;;;3.63;;
13959;SDS011;7052;51.050;3.716;2023-04-04T06:00:17;6.63;;;3.70;;
13959;SDS011;7052;51.050;3.716;2023-04-04T06:02:46;7.57;;;3.67;;
13959;SDS011;7052;51.050;3.716;2023-04-04T06:05:13;12.30;;;3.90;;
13959;SDS011;7052;51.050;3.716;2023-04-04T06:07:40;7.83;;;3.40;;
13959;SDS011;7052;51.050;3.716;2023-04-04T06:10:08;7.30;;;3.70;;
13959;SDS011;7052;51.050;3.716;2023-04-04T06:12:37;5.63;;;3.50;;
13959;SDS011;7052;51.050;3.716;2023-04-04T06:15:10;6.53;;;3.40;;
13959;SDS011;7052;51.050;3.716;2023-04-04T06:17:38;5.30;;;4.10;;
13959;SDS011;7052;51.050;3.716;2023-04-04T06:20:06;6.90;;;3.80;;
13959;SDS011;7052;51.050;3.716;2023-04-04T06:22:35;7.13;;;3.70;;
13959;SDS011;7052;51.050;3.716;2023-04-04T06:25:02;9.40;;;4.20;;
13959;SDS011;7052;51.050;3.716;2023-04-04T06:27:30;7.53;;;3.70;;
13959;SDS011;7052;51.050;3.716;2023-04-04T06:29:59;6.43;;;3.60;;
13959;SDS011;7052;51.050;3.716;2023-04-04T06:32:31;10.07;;;4.07;;
13959;SDS011;7052;51.050;3.716;2023-04-04T06:34:58;8.87;;;3.77;;
13959;SDS011;7052;51.050;3.716;2023-04-04T06:37:24;6.33;;;3.60;;
13959;SDS011;7052;51.050;3.716;2023-04-04T06:39:53;5.37;;;3.67;;
13959;SDS011;7052;51.050;3.716;2023-04-04T06:42:20;7.97;;;3.60;;
13959;SDS011;7052;51.050;3.716;2023-04-04T06:44:46;6.80;;;3.73;;
13959;SDS011;7052;51.050;3.716;2023-04-04T06:47:13;7.17;;;3.40;;
13959;SDS011;7052;51.050;3.716;2023-04-04T06:49:42;6.17;;;3.40;;
13959;SDS011;7052;51.050;3.716;2023-04-04T06:52:09;4.43;;;3.20;;
13959;SDS011;7052;51.050;3.716;2023-04-04T06:54:36;6.37;;;3.30;;
13959;SDS011;7052;51.050;3.716;2023-04-04T06:57:03;7.50;;;4.03;;
13959;SDS011;7052;51.050;3.716;2023-04-04T06:59:32;6.70;;;3.40;;
13959;SDS011;7052;51.050;3.716;2023-04-04T07:01:59;7.20;;;4.07;;
13959;SDS011;7052;51.050;3.716;2023-04-04T07:04:26;6.97;;;4.03;;
13959;SDS011;7052;51.050;3.716;2023-04-04T07:06:58;8.50;;;3.70;;
13959;SDS011;7052;51.050;3.716;2023-04-04T07:09:32;6.73;;;3.70;;
13959;SDS011;7052;51.050;3.716;2023-04-04T07:12:02;6.20;;;3.60;;
13959;SDS011;7052;51.050;3.716;2023-04-04T07:14:30;6.93;;;3.67;;
13959;SDS011;7052;51.050;3.716;2023-04-04T07:16:57;5.00;;;3.40;;
13959;SDS011;7052;51.050;3.716;2023-04-04T07:19:24;5.00;;;3.80;;
13959;SDS011;7052;51.050;3.716;2023-04-04T07:21:53;10.07;;;4.03;;
13959;SDS011;7052;51.050;3.716;2023-04-04T07:24:21;6.20;;;3.53;;
13959;SDS011;7052;51.050;3.716;2023-04-04T07:26:51;8.37;;;4.80;;
13959;SDS011;7052;51.050;3.716;2023-04-04T07:29:19;12.70;;;4.00;;
13959;SDS011;7052;51.050;3.716;2023-04-04T07:31:46;11.77;;;4.40;;
13959;SDS011;7052;51.050;3.716;2023-04-04T07:34:15;6.57;;;4.00;;
13959;SDS011;7052;51.050;3.716;2023-04-04T07:36:44;6.40;;;3.47;;
13959;SDS011;7052;51.050;3.716;2023-04-04T07:39:11;7.80;;;3.90;;
13959;SDS011;7052;51.050;3.716;2023-04-04T07:41:47;5.30;;;3.70;;
13959;SDS011;7052;51.050;3.716;2023-04-04T07:44:14;8.30;;;4.20;;
13959;SDS011;7052;51.050;3.716;2023-04-04T07:46:41;7.27;;;3.70;;
13959;SDS011;7052;51.050;3.716;2023-04-04T07:49:08;8.13;;;4.00;;
13959;SDS011;7052;51.050;3.716;2023-04-04T07:51:35;10.43;;;4.07;;
13959;SDS011;7052;51.050;3.716;2023-04-04T07:54:03;3.63;;;2.70;;
13959;SDS011;7052;51.050;3.716;2023-04-04T07:56:32;4.70;;;2.73;;
13959;SDS011;7052;51.050;3.716;2023-04-04T07:59:00;7.33;;;3.40;;
13959;SDS011;7052;51.050;3.716;2023-04-04T08:01:29;5.17;;;3.33;;
13959;SDS011;7052;51.050;3.716;2023-04-04T08:03:55;6.47;;;3.10;;
13959;SDS011;7052;51.050;3.716;2023-04-04T08:06:24;6.47;;;3.20;;
13959;SDS011;7052;51.050;3.716;2023-04-04T08:08:51;11.63;;;3.60;;
13959;SDS011;7052;51.050;3.716;2023-04-04T08:11:19;7.03;;;3.37;;
13959;SDS011;7052;51.050;3.716;2023-04-04T08:13:45;5.23;;;3.10;;
13959;SDS011;7052;51.050;3.716;2023-04-04T08:16:15;9.97;;;4.50;;
13959;SDS011;7052;51.050;3.716;2023-04-04T08:18:42;7.63;;;3.70;;
13959;SDS011;7052;51.050;3.716;2023-04-04T08:21:10;8.57;;;3.57;;
13959;SDS011;7052;51.050;3.716;2023-04-04T08:23:38;13.17;;;5.23;;
13959;SDS011;7052;51.050;3.716;2023-04-04T08:26:05;8.13;;;3.30;;
13959;SDS011;7052;51.050;3.716;2023-04-04T08:28:32;9.80;;;3.50;;
13959;SDS011;7052;51.050;3.716;2023-04-04T08:31:03;6.63;;;3.57;;
13959;SDS011;7052;51.050;3.716;2023-04-04T08:33:31;7.47;;;3.30;;
13959;SDS011;7052;51.050;3.716;2023-04-04T08:35:59;8.13;;;3.00;;
13959;SDS011;7052;51.050;3.716;2023-04-04T08:38:25;9.77;;;3.67;;
13959;SDS011;7052;51.050;3.716;2023-04-04T08:40:54;12.10;;;3.70;;
13959;SDS011;7052;51.050;3.716;2023-04-04T08:43:22;6.80;;;2.70;;
13959;SDS011;7052;51.050;3.716;2023-04-04T08:45:52;5.73;;;2.87;;
13959;SDS011;7052;51.050;3.716;2023-04-04T08:48:19;7.70;;;3.37;;
13959;SDS011;7052;51.050;3.716;2023-04-04T08:50:52;10.77;;;3.93;;
13959;SDS011;7052;51.050;3.716;2023-04-04T08:53:23;6.13;;;2.97;;
13959;SDS011;7052;51.050;3.716;2023-04-04T08:55:51;13.40;;;3.43;;
13959;SDS011;7052;51.050;3.716;2023-04-04T08:58:19;8.03;;;3.10;;
13959;SDS011;7052;51.050;3.716;2023-04-04T09:00:45;8.13;;;3.00;;
13959;SDS011;7052;51.050;3.716;2023-04-04T09:03:19;7.67;;;3.10;;
13959;SDS011;7052;51.050;3.716;2023-04-04T09:05:51;4.50;;;2.47;;
13959;SDS011;7052;51.050;3.716;2023-04-04T09:08:20;5.10;;;2.60;;
13959;SDS011;7052;51.050;3.716;2023-04-04T09:10:50;5.00;;;2.67;;
13959;SDS011;7052;51.050;3.716;2023-04-04T09:13:20;7.10;;;3.07;;
13959;SDS011;7052;51.050;3.716;2023-04-04T09:15:48;4.10;;;2.30;;
13959;SDS011;7052;51.050;3.716;2023-04-04T09:18:18;7.87;;;2.80;;
13959;SDS011;7052;51.050;3.716;2023-04-04T09:20:45;10.60;;;2.83;;
13959;SDS011;7052;51.050;3.716;2023-04-04T09:23:16;9.07;;;3.50;;
13959;SDS011;7052;51.050;3.716;2023-04-04T09:25:45;11.63;;;3.40;;
13959;SDS011;7052;51.050;3.716;2023-04-04T09:28:13;8.10;;;2.90;;
13959;SDS011;7052;51.050;3.716;2023-04-04T09:30:42;2.87;;;2.30;;
13959;SDS011;7052;51.050;3.716;2023-04-04T09:33:13;4.63;;;2.80;;
13959;SDS011;7052;51.050;3.716;2023-04-04T09:35:43;4.90;;;2.57;;
13959;SDS011;7052;51.050;3.716;2023-04-04T09:38:11;3.90;;;2.60;;
13959;SDS011;7052;51.050;3.716;2023-04-04T09:40:41;3.60;;;2.53;;
13959;SDS011;7052;51.050;3.716;2023-04-04T09:43:10;3.53;;;2.63;;
13959;SDS011;7052;51.050;3.716;2023-04-04T09:45:39;6.30;;;3.20;;
13959;SDS011;7052;51.050;3.716;2023-04-04T09:48:11;3.70;;;2.73;;
13959;SDS011;7052;51.050;3.716;2023-04-04T09:50:44;5.90;;;3.33;;
13959;SDS011;7052;51.050;3.716;2023-04-04T09:53:15;12.17;;;3.40;;
13959;SDS011;7052;51.050;3.716;2023-04-04T09:55:50;6.43;;;2.53;;
13959;SDS011;7052;51.050;3.716;2023-04-04T09:58:18;4.10;;;2.50;;
13959;SDS011;7052;51.050;3.716;2023-04-04T10:00:51;4.20;;;2.73;;
13959;SDS011;7052;51.050;3.716;2023-04-04T10:03:20;6.60;;;2.80;;
13959;SDS011;7052;51.050;3.716;2023-04-04T10:05:53;4.60;;;2.50;;
13959;SDS011;7052;51.050;3.716;2023-04-04T10:08:21;4.60;;;2.80;;
13959;SDS011;7052;51.050;3.716;2023-04-04T10:10:50;3.40;;;2.37;;
13959;SDS011;7052;51.050;3.716;2023-04-04T10:13:24;5.60;;;2.67;;
13959;SDS011;7052;51.050;3.716;2023-04-04T10:15:52;3.77;;;2.50;;
13959;SDS011;7052;51.050;3.716;2023-04-04T10:18:24;7.90;;;3.20;;
13959;SDS011;7052;51.050;3.716;2023-04-04T10:20:52;4.23;;;2.83;;
13959;SDS011;7052;51.050;3.716;2023-04-04T10:23:28;3.73;;;2.90;;
13959;SDS011;7052;51.050;3.716;2023-04-04T10:25:57;4.67;;;2.87;;
13959;SDS011;7052;51.050;3.716;2023-04-04T10:28:24;3.33;;;2.60;;
13959;SDS011;7052;51.050;3.716;2023-04-04T10:30:54;3.90;;;2.80;;
13959;SDS011;7052;51.050;3.716;2023-04-04T10:33:29;5.40;;;2.50;;
13959;SDS011;7052;51.050;3.716;2023-04-04T10:36:06;7.73;;;2.93;;
13959;SDS011;7052;51.050;3.716;2023-04-04T10:38:39;4.00;;;2.67;;
13959;SDS011;7052;51.050;3.716;2023-04-04T10:41:13;4.73;;;2.80;;
13959;SDS011;7052;51.050;3.716;2023-04-04T10:43:42;4.23;;;2.70;;
13959;SDS011;7052;51.050;3.716;2023-04-04T10:46:12;3.37;;;2.97;;
13959;SDS011;7052;51.050;3.716;2023-04-04T10:48:43;5.67;;;3.10;;
13959;SDS011;7052;51.050;3.716;2023-04-04T10:51:12;8.57;;;2.93;;
13959;SDS011;7052;51.050;3.716;2023-04-04T10:53:43;4.27;;;2.83;;
13959;SDS011;7052;51.050;3.716;2023-04-04T10:56:10;5.97;;;3.20;;
13959;SDS011;7052;51.050;3.716;2023-04-04T10:58:40;7.23;;;3.27;;
13959;SDS011;7052;51.050;3.716;2023-04-04T11:01:08;5.63;;;2.80;;
13959;SDS011;7052;51.050;3.716;2023-04-04T11:09:50;3.63;;;2.60;;
13959;SDS011;7052;51.050;3.716;2023-04-04T11:15:09;5.33;;;3.13;;
13959;SDS011;7052;51.050;3.716;2023-04-04T11:17:44;4.30;;;3.00;;
13959;SDS011;7052;51.050;3.716;2023-04-04T11:20:24;6.00;;;2.90;;
13959;SDS011;7052;51.050;3.716;2023-04-04T11:23:01;4.87;;;3.00;;
13959;SDS011;7052;51.050;3.716;2023-04-04T11:25:34;6.37;;;3.30;;
13959;SDS011;7052;51.050;3.716;2023-04-04T11:28:08;5.50;;;3.07;;
13959;SDS011;7052;51.050;3.716;2023-04-04T11:30:42;6.47;;;3.30;;
13959;SDS011;7052;51.050;3.716;2023-04-04T11:33:12;5.97;;;3.20;;
13959;SDS011;7052;51.050;3.716;2023-04-04T11:35:50;5.97;;;3.33;;
13959;SDS011;7052;51.050;3.716;2023-04-04T11:38:17;5.20;;;3.10;;
13959;SDS011;7052;51.050;3.716;2023-04-04T11:40:51;5.07;;;3.00;;
13959;SDS011;7052;51.050;3.716;2023-04-04T11:43:21;4.83;;;2.93;;
13959;SDS011;7052;51.050;3.716;2023-04-04T11:45:49;4.70;;;2.97;;
13959;SDS011;7052;51.050;3.716;2023-04-04T11:48:17;5.23;;;3.07;;
13959;SDS011;7052;51.050;3.716;2023-04-04T11:50:46;4.73;;;3.07;;
13959;SDS011;7052;51.050;3.716;2023-04-04T11:53:15;6.47;;;3.73;;
13959;SDS011;7052;51.050;3.716;2023-04-04T11:55:43;5.63;;;3.40;;
13959;SDS011;7052;51.050;3.716;2023-04-04T11:58:15;4.13;;;3.00;;
13959;SDS011;7052;51.050;3.716;2023-04-04T12:00:45;5.57;;;3.20;;
13959;SDS011;7052;51.050;3.716;2023-04-04T12:03:15;7.77;;;3.30;;
13959;SDS011;7052;51.050;3.716;2023-04-04T12:05:42;4.80;;;3.33;;
13959;SDS011;7052;51.050;3.716;2023-04-04T12:08:12;6.60;;;3.50;;
13959;SDS011;7052;51.050;3.716;2023-04-04T12:10:41;8.27;;;3.20;;
13959;SDS011;7052;51.050;3.716;2023-04-04T12:13:09;7.40;;;3.70;;
13959;SDS011;7052;51.050;3.716;2023-04-04T12:15:37;5.50;;;3.20;;
13959;SDS011;7052;51.050;3.716;2023-04-04T12:18:08;12.97;;;4.23;;
13959;SDS011;7052;51.050;3.716;2023-04-04T12:20:38;9.80;;;3.70;;
13959;SDS011;7052;51.050;3.716;2023-04-04T12:23:06;6.63;;;3.37;;
13959;SDS011;7052;51.050;3.716;2023-04-04T12:25:33;6.43;;;3.30;;
13959;SDS011;7052;51.050;3.716;2023-04-04T12:28:03;5.87;;;3.40;;
13959;SDS011;7052;51.050;3.716;2023-04-04T12:30:32;6.67;;;3.90;;
13959;SDS011;7052;51.050;3.716;2023-04-04T12:32:59;5.87;;;3.53;;
13959;SDS011;7052;51.050;3.716;2023-04-04T12:35:28;4.63;;;3.43;;
13959;SDS011;7052;51.050;3.716;2023-04-04T12:37:57;9.70;;;3.80;;
13959;SDS011;7052;51.050;3.716;2023-04-04T12:40:28;6.00;;;3.77;;
13959;SDS011;7052;51.050;3.716;2023-04-04T12:42:58;6.63;;;4.10;;
13959;SDS011;7052;51.050;3.716;2023-04-04T12:45:26;4.87;;;3.93;;
13959;SDS011;7052;51.050;3.716;2023-04-04T12:47:54;4.20;;;3.80;;
13959;SDS011;7052;51.050;3.716;2023-04-04T12:50:26;10.27;;;3.40;;
13959;SDS011;7052;51.050;3.716;2023-04-04T12:52:58;7.63;;;3.43;;
13959;SDS011;7052;51.050;3.716;2023-04-04T12:55:29;7.00;;;3.70;;
13959;SDS011;7052;51.050;3.716;2023-04-04T12:57:58;8.30;;;3.77;;
13959;SDS011;7052;51.050;3.716;2023-04-04T13:00:26;5.40;;;3.40;;
13959;SDS011;7052;51.050;3.716;2023-04-04T13:02:54;5.10;;;3.67;;
13959;SDS011;7052;51.050;3.716;2023-04-04T13:05:25;9.83;;;4.23;;
13959;SDS011;7052;51.050;3.716;2023-04-04T13:08:03;10.77;;;3.87;;
13959;SDS011;7052;51.050;3.716;2023-04-04T13:13:32;6.97;;;3.60;;
13959;SDS011;7052;51.050;3.716;2023-04-04T13:16:01;11.40;;;3.93;;
13959;SDS011;7052;51.050;3.716;2023-04-04T13:18:33;6.03;;;3.57;;
13959;SDS011;7052;51.050;3.716;2023-04-04T13:21:03;10.43;;;4.13;;
13959;SDS011;7052;51.050;3.716;2023-04-04T13:23:32;9.40;;;4.47;;
13959;SDS011;7052;51.050;3.716;2023-04-04T13:25:59;7.83;;;4.00;;
13959;SDS011;7052;51.050;3.716;2023-04-04T13:28:28;7.03;;;3.90;;
13959;SDS011;7052;51.050;3.716;2023-04-04T13:30:56;9.57;;;4.70;;
13959;SDS011;7052;51.050;3.716;2023-04-04T13:33:23;4.67;;;3.47;;
13959;SDS011;7052;51.050;3.716;2023-04-04T13:35:52;6.50;;;3.67;;
13959;SDS011;7052;51.050;3.716;2023-04-04T13:38:21;10.27;;;3.50;;
13959;SDS011;7052;51.050;3.716;2023-04-04T13:40:52;6.40;;;4.40;;
13959;SDS011;7052;51.050;3.716;2023-04-04T13:43:19;6.30;;;4.20;;
13959;SDS011;7052;51.050;3.716;2023-04-04T13:45:47;11.23;;;4.60;;
13959;SDS011;7052;51.050;3.716;2023-04-04T13:48:15;6.70;;;3.83;;
13959;SDS011;7052;51.050;3.716;2023-04-04T13:50:42;5.67;;;3.87;;
13959;SDS011;7052;51.050;3.716;2023-04-04T13:53:15;6.17;;;4.10;;
13959;SDS011;7052;51.050;3.716;2023-04-04T13:55:42;5.23;;;3.60;;
13959;SDS011;7052;51.050;3.716;2023-04-04T13:58:18;10.30;;;3.83;;
13959;SDS011;7052;51.050;3.716;2023-04-04T14:00:46;13.33;;;8.17;;
13959;SDS011;7052;51.050;3.716;2023-04-04T14:03:14;6.27;;;3.63;;
13959;SDS011;7052;51.050;3.716;2023-04-04T14:05:41;5.80;;;3.70;;
13959;SDS011;7052;51.050;3.716;2023-04-04T14:08:08;4.57;;;3.70;;
13959;SDS011;7052;51.050;3.716;2023-04-04T14:10:35;7.40;;;3.37;;
13959;SDS011;7052;51.050;3.716;2023-04-04T14:13:02;13.00;;;4.20;;
13959;SDS011;7052;51.050;3.716;2023-04-04T14:15:31;5.83;;;3.90;;
13959;SDS011;7052;51.050;3.716;2023-04-04T14:17:59;5.40;;;3.67;;
13959;SDS011;7052;51.050;3.716;2023-04-04T14:20:26;5.00;;;3.70;;
13959;SDS011;7052;51.050;3.716;2023-04-04T14:22:53;5.63;;;3.47;;
13959;SDS011;7052;51.050;3.716;2023-04-04T14:25:20;7.13;;;3.90;;
13959;SDS011;7052;51.050;3.716;2023-04-04T14:27:47;5.17;;;3.77;;
13959;SDS011;7052;51.050;3.716;2023-04-04T14:30:15;5.40;;;3.83;;
13959;SDS011;7052;51.050;3.716;2023-04-04T14:32:43;10.40;;;4.53;;
13959;SDS011;7052;51.050;3.716;2023-04-04T14:35:16;5.10;;;4.50;;
13959;SDS011;7052;51.050;3.716;2023-04-04T14:37:43;8.17;;;4.10;;
13959;SDS011;7052;51.050;3.716;2023-04-04T14:40:10;5.40;;;3.80;;
13959;SDS011;7052;51.050;3.716;2023-04-04T14:42:38;5.90;;;3.70;;
13959;SDS011;7052;51.050;3.716;2023-04-04T14:45:05;7.10;;;4.03;;
13959;SDS011;7052;51.050;3.716;2023-04-04T14:47:35;7.27;;;4.17;;
13959;SDS011;7052;51.050;3.716;2023-04-04T14:50:05;6.87;;;4.33;;
13959;SDS011;7052;51.050;3.716;2023-04-04T14:52:35;9.27;;;4.60;;
13959;SDS011;7052;51.050;3.716;2023-04-04T14:55:02;7.30;;;3.67;;
13959;SDS011;7052;51.050;3.716;2023-04-04T14:57:30;6.50;;;4.13;;
13959;SDS011;7052;51.050;3.716;2023-04-04T14:59:59;7.43;;;4.38;;
13959;SDS011;7052;51.050;3.716;2023-04-04T15:02:33;6.30;;;4.10;;
13959;SDS011;7052;51.050;3.716;2023-04-04T15:05:00;7.00;;;4.20;;
13959;SDS011;7052;51.050;3.716;2023-04-04T15:07:28;6.05;;;4.78;;
13959;SDS011;7052;51.050;3.716;2023-04-04T15:09:55;5.30;;;3.73;;
13959;SDS011;7052;51.050;3.716;2023-04-04T15:12:22;9.17;;;4.03;;
13959;SDS011;7052;51.050;3.716;2023-04-04T15:14:49;6.33;;;4.20;;
13959;SDS011;7052;51.050;3.716;2023-04-04T15:17:17;8.50;;;4.20;;
13959;SDS011;7052;51.050;3.716;2023-04-04T15:19:43;7.13;;;3.87;;
13959;SDS011;7052;51.050;3.716;2023-04-04T15:22:10;5.47;;;4.27;;